createdAt,value
2022-11-10T00:00:50.218Z,79.20
2022-11-10T00:03:35.543Z,79.08
2022-11-10T00:06:20.400Z,79.27
2022-11-10T00:09:06.547Z,79.20
2022-11-10T00:11:51.873Z,79.71
2022-11-10T00:14:55.743Z,79.13
2022-11-10T00:17:41.045Z,79.01
2022-11-10T00:20:25.816Z,79.47
2022-11-10T00:23:10.824Z,79.28
2022-11-10T00:25:55.883Z,79.17
2022-11-10T00:28:40.998Z,79.33
2022-11-10T00:31:28.629Z,79.20
2022-11-10T00:34:15.056Z,79.17
2022-11-10T00:37:00.134Z,79.06
2022-11-10T00:39:44.992Z,79.35
2022-11-10T00:42:30.017Z,79.31
2022-11-10T00:45:14.958Z,79.37
2022-11-10T00:47:59.900Z,79.53
2022-11-10T00:50:45.030Z,79.04
2022-11-10T00:53:29.859Z,79.21
2022-11-10T00:56:14.847Z,79.08
2022-11-10T00:59:00.062Z,79.31
2022-11-10T01:01:45.362Z,79.15
2022-11-10T01:04:30.332Z,78.97
2022-11-10T01:07:15.373Z,79.24
2022-11-10T01:10:00.346Z,79.09
2022-11-10T01:12:45.276Z,79.21
2022-11-10T01:15:30.111Z,79.18
2022-11-10T01:18:15.920Z,79.62
2022-11-10T01:21:00.840Z,79.15
2022-11-10T01:23:46.174Z,78.77
2022-11-10T01:26:31.256Z,78.93
2022-11-10T01:29:16.261Z,79.14
2022-11-10T01:32:01.128Z,79.40
2022-11-10T01:34:46.166Z,79.00
2022-11-10T01:37:31.016Z,79.17
2022-11-10T01:40:16.135Z,78.73
2022-11-10T01:43:01.580Z,78.73
2022-11-10T01:45:53.449Z,78.98
2022-11-10T01:48:44.763Z,79.43
2022-11-10T01:51:30.534Z,79.31
2022-11-10T01:54:18.319Z,79.10
2022-11-10T01:57:05.267Z,79.02
2022-11-10T01:59:51.280Z,79.03
2022-11-10T02:02:56.797Z,79.03
2022-11-10T02:05:42.385Z,79.03
2022-11-10T02:08:27.330Z,78.80
2022-11-10T02:11:12.584Z,79.11
2022-11-10T02:13:57.623Z,79.35
2022-11-10T02:16:42.659Z,79.89
2022-11-10T02:19:28.249Z,79.63
2022-11-10T02:22:13.376Z,78.99
2022-11-10T02:24:58.805Z,78.53
2022-11-10T02:27:43.703Z,78.77
2022-11-10T02:30:28.820Z,79.90
2022-11-10T02:33:13.818Z,79.38
2022-11-10T02:35:58.883Z,79.51
2022-11-10T02:38:43.669Z,79.52
2022-11-10T02:41:28.640Z,78.96
2022-11-10T02:44:13.575Z,79.15
2022-11-10T02:46:58.474Z,79.18
2022-11-10T02:49:45.086Z,78.90
2022-11-10T02:52:30.217Z,79.11
2022-11-10T02:55:15.777Z,78.48
2022-11-10T02:58:00.698Z,77.85
2022-11-10T03:00:45.786Z,78.23
2022-11-10T03:03:30.704Z,77.94
2022-11-10T03:06:15.571Z,77.64
2022-11-10T03:09:00.687Z,77.96
2022-11-10T03:11:45.485Z,78.33
2022-11-10T03:14:30.457Z,78.49
2022-11-10T03:17:15.367Z,78.43
2022-11-10T03:20:00.351Z,78.46
2022-11-10T03:22:45.414Z,79.00
2022-11-10T03:25:30.605Z,78.53
2022-11-10T03:28:15.566Z,79.71
2022-11-10T03:31:00.810Z,79.30
2022-11-10T03:33:46.071Z,79.44
2022-11-10T03:36:31.064Z,79.04
2022-11-10T03:39:16.041Z,78.79
2022-11-10T03:42:01.127Z,79.11
2022-11-10T03:44:46.104Z,78.91
2022-11-10T03:47:31.038Z,78.81
2022-11-10T03:50:16.179Z,79.19
2022-11-10T03:53:01.361Z,79.23
2022-11-10T03:55:46.304Z,79.02
2022-11-10T03:58:31.306Z,78.71
2022-11-10T04:01:16.236Z,79.05
2022-11-10T04:04:01.653Z,79.66
2022-11-10T04:07:05.500Z,79.40
2022-11-10T04:09:50.554Z,79.31
2022-11-10T04:12:54.321Z,79.39
2022-11-10T04:15:42.198Z,79.41
2022-11-10T04:18:27.167Z,79.73
2022-11-10T04:21:12.329Z,79.79
2022-11-10T04:23:57.179Z,80.02
2022-11-10T04:26:42.958Z,79.59
2022-11-10T04:29:28.054Z,79.61
2022-11-10T04:32:13.466Z,79.41
2022-11-10T04:34:59.036Z,79.19
2022-11-10T04:37:43.918Z,79.44
2022-11-10T04:40:29.269Z,79.86
2022-11-10T04:43:14.096Z,79.16
2022-11-10T04:45:59.243Z,78.90
2022-11-10T04:48:44.409Z,79.33
2022-11-10T04:51:30.531Z,79.63
2022-11-10T04:54:15.864Z,79.39
2022-11-10T04:57:00.621Z,79.90
2022-11-10T04:59:45.537Z,80.00
2022-11-10T05:02:34.384Z,80.04
2022-11-10T05:05:21.849Z,79.87
2022-11-10T05:08:07.189Z,79.97
2022-11-10T05:10:52.148Z,79.78
2022-11-10T05:13:37.086Z,79.82
2022-11-10T05:16:22.417Z,79.97
2022-11-10T05:19:08.261Z,79.83
2022-11-10T05:21:53.271Z,80.12
2022-11-10T05:24:38.997Z,79.70
2022-11-10T05:27:23.957Z,79.98
2022-11-10T05:30:09.204Z,79.58
2022-11-10T05:32:54.241Z,79.51
2022-11-10T05:35:39.524Z,79.67
2022-11-10T05:38:24.466Z,79.71
2022-11-10T05:41:09.555Z,79.65
2022-11-10T05:43:54.958Z,79.05
2022-11-10T05:46:39.883Z,78.60
2022-11-10T05:49:24.839Z,78.38
2022-11-10T05:52:09.740Z,78.32
2022-11-10T05:54:55.552Z,77.67
2022-11-10T05:57:46.890Z,77.63
2022-11-10T06:00:32.275Z,77.55
2022-11-10T06:03:18.052Z,78.53
2022-11-10T06:06:03.470Z,79.01
2022-11-10T06:08:48.943Z,79.26
2022-11-10T06:11:34.988Z,80.11
2022-11-10T06:14:19.885Z,79.44
2022-11-10T06:17:04.834Z,79.72
2022-11-10T06:19:50.194Z,80.10
2022-11-10T06:22:35.075Z,79.55
2022-11-10T06:25:19.898Z,79.54
2022-11-10T06:28:05.162Z,79.19
2022-11-10T06:30:50.667Z,79.65
2022-11-10T06:33:36.153Z,80.25
2022-11-10T06:36:21.547Z,79.89
2022-11-10T06:39:06.841Z,79.85
2022-11-10T06:41:53.084Z,80.01
2022-11-10T06:44:37.983Z,80.23
2022-11-10T06:47:22.819Z,80.33
2022-11-10T06:50:07.881Z,80.75
2022-11-10T06:52:59.321Z,80.84
2022-11-10T06:55:44.427Z,80.88
2022-11-10T06:58:29.377Z,81.22
2022-11-10T07:01:17.663Z,80.53
2022-11-10T07:04:19.353Z,80.38
2022-11-10T07:07:05.409Z,80.13
2022-11-10T07:09:50.328Z,80.30
2022-11-10T07:12:35.251Z,80.10
2022-11-10T07:15:20.261Z,79.88
2022-11-10T07:18:05.236Z,80.30
2022-11-10T07:20:50.220Z,80.10
2022-11-10T07:23:35.167Z,80.07
2022-11-10T07:26:20.258Z,79.95
2022-11-10T07:29:05.584Z,79.50
2022-11-10T07:31:50.658Z,79.20
2022-11-10T07:34:35.699Z,78.71
2022-11-10T07:37:20.651Z,79.34
2022-11-10T07:40:06.092Z,78.93
2022-11-10T07:42:51.242Z,78.67
2022-11-10T07:45:36.465Z,78.94
2022-11-10T07:48:21.594Z,79.04
2022-11-10T07:51:07.072Z,79.19
2022-11-10T07:53:52.357Z,78.87
2022-11-10T07:56:37.497Z,79.05
2022-11-10T07:59:22.542Z,79.19
2022-11-10T08:02:09.291Z,79.07
2022-11-10T08:04:54.955Z,79.31
2022-11-10T08:07:41.308Z,79.54
2022-11-10T08:10:27.430Z,79.89
2022-11-10T08:13:12.972Z,79.96
2022-11-10T08:15:59.577Z,79.86
2022-11-10T08:18:44.933Z,79.57
2022-11-10T08:21:30.042Z,79.12
2022-11-10T08:24:14.872Z,79.09
2022-11-10T08:26:59.696Z,78.75
2022-11-10T08:29:44.475Z,78.63
2022-11-10T08:32:29.535Z,78.73
2022-11-10T08:35:14.384Z,78.51
2022-11-10T08:37:59.244Z,78.17
2022-11-10T08:40:44.447Z,78.45
2022-11-10T08:43:30.050Z,78.72
2022-11-10T08:46:15.396Z,78.70
2022-11-10T08:49:00.431Z,78.63
2022-11-10T08:51:45.516Z,78.64
2022-11-10T08:54:30.340Z,77.99
2022-11-10T08:57:15.518Z,77.89
2022-11-10T09:00:00.827Z,77.89
2022-11-10T09:02:45.991Z,78.25
2022-11-10T09:05:31.044Z,78.00
2022-11-10T09:08:16.060Z,77.33
2022-11-10T09:11:04.359Z,76.20
2022-11-10T09:13:49.514Z,76.34
2022-11-10T09:16:34.426Z,76.65
2022-11-10T09:19:20.147Z,75.04
2022-11-10T09:22:05.518Z,74.83
2022-11-10T09:24:50.534Z,74.98
2022-11-10T09:27:36.291Z,74.27
2022-11-10T09:30:21.351Z,73.97
2022-11-10T09:33:06.984Z,74.10
2022-11-10T09:35:56.519Z,74.55
2022-11-10T09:38:42.116Z,73.63
2022-11-10T09:41:29.971Z,73.05
2022-11-10T09:44:16.627Z,72.65
2022-11-10T09:47:50.481Z,71.83
2022-11-10T09:50:37.820Z,71.92
2022-11-10T09:53:23.788Z,71.44
2022-11-10T09:56:09.136Z,71.76
2022-11-10T09:58:54.386Z,72.01
2022-11-10T10:01:47.650Z,70.16
2022-11-10T10:04:33.001Z,72.23
2022-11-10T10:07:18.574Z,70.44
2022-11-10T10:10:24.266Z,69.36
2022-11-10T10:13:12.059Z,67.98
2022-11-10T10:16:10.669Z,68.84
2022-11-10T10:19:05.315Z,68.08
2022-11-10T10:21:50.406Z,68.10
2022-11-10T10:24:35.343Z,66.67
2022-11-10T10:27:21.663Z,68.60
2022-11-10T10:30:14.840Z,66.44
2022-11-10T10:33:19.521Z,67.17
2022-11-10T10:36:06.623Z,67.46
2022-11-10T10:38:56.044Z,65.78
2022-11-10T10:41:41.304Z,64.82
2022-11-10T10:44:26.319Z,64.14
2022-11-10T10:47:11.202Z,67.19
2022-11-10T10:50:05.864Z,67.11
2022-11-10T10:53:07.362Z,65.25
2022-11-10T10:56:05.576Z,63.43
2022-11-10T10:58:57.429Z,62.51
2022-11-10T11:01:46.768Z,66.04
2022-11-10T11:04:32.245Z,65.26
2022-11-10T11:07:22.779Z,65.68
2022-11-10T11:10:22.135Z,66.56
2022-11-10T11:13:16.433Z,65.87
2022-11-10T11:16:02.300Z,66.21
2022-11-10T11:18:47.186Z,68.11
2022-11-10T11:21:34.807Z,68.62
2022-11-10T11:24:40.329Z,69.83
2022-11-10T11:27:44.392Z,71.91
2022-11-10T11:30:48.352Z,71.84
2022-11-10T11:33:36.079Z,70.35
2022-11-10T11:36:24.867Z,64.59
2022-11-10T11:39:48.659Z,67.81
2022-11-10T11:42:45.807Z,69.35
2022-11-10T11:45:33.734Z,70.48
2022-11-10T11:48:21.737Z,71.35
2022-11-10T11:51:10.218Z,71.98
2022-11-10T11:54:16.218Z,71.39
2022-11-10T11:57:07.155Z,71.61
2022-11-10T11:59:59.262Z,72.60
2022-11-10T12:02:52.473Z,72.77
2022-11-10T12:05:44.012Z,73.22
2022-11-10T12:08:31.890Z,72.61
2022-11-10T12:11:20.473Z,72.45
2022-11-10T12:14:05.453Z,72.77
2022-11-10T12:16:58.432Z,73.34
2022-11-10T12:20:03.750Z,72.48
2022-11-10T12:22:57.754Z,72.27
2022-11-10T12:26:01.746Z,70.42
2022-11-10T12:28:50.378Z,65.15
2022-11-10T12:31:36.067Z,67.29
2022-11-10T12:34:28.637Z,69.29
2022-11-10T12:37:27.522Z,68.79
2022-11-10T12:40:13.144Z,69.05
2022-11-10T12:43:02.284Z,68.43
2022-11-10T12:45:49.220Z,66.54
2022-11-10T12:48:36.343Z,66.21
2022-11-10T12:51:32.367Z,67.37
2022-11-10T12:54:17.624Z,66.45
2022-11-10T12:57:04.715Z,63.93
2022-11-10T12:59:56.728Z,65.46
2022-11-10T13:02:42.669Z,62.94
2022-11-10T13:05:27.669Z,63.13
2022-11-10T13:08:12.665Z,63.17
2022-11-10T13:10:58.080Z,63.37
2022-11-10T13:13:46.493Z,61.79
2022-11-10T13:16:40.626Z,62.52
2022-11-10T13:19:29.091Z,59.23
2022-11-10T13:22:43.571Z,59.67
2022-11-10T13:25:37.761Z,59.76
2022-11-10T13:28:41.512Z,60.93
2022-11-10T13:31:31.057Z,59.87
2022-11-10T13:34:19.119Z,61.55
2022-11-10T13:37:22.888Z,59.67
2022-11-10T13:40:16.971Z,59.41
2022-11-10T13:43:01.973Z,61.11
2022-11-10T13:45:47.064Z,60.42
2022-11-10T13:49:04.566Z,60.68
2022-11-10T13:52:12.720Z,60.34
2022-11-10T13:55:16.796Z,59.65
2022-11-10T13:58:02.474Z,62.62
2022-11-10T14:00:51.144Z,63.23
2022-11-10T14:03:45.670Z,65.59
2022-11-10T14:06:40.696Z,65.43
2022-11-10T14:09:27.731Z,65.37
2022-11-10T14:12:30.537Z,68.00
2022-11-10T14:15:20.185Z,66.94
2022-11-10T14:18:11.644Z,67.99
2022-11-10T14:20:57.644Z,68.77
2022-11-10T14:23:42.888Z,67.83
2022-11-10T14:26:44.544Z,67.46
2022-11-10T14:29:29.562Z,68.86
2022-11-10T14:32:21.581Z,68.23
2022-11-10T14:35:06.596Z,69.07
2022-11-10T14:37:57.612Z,67.91
2022-11-10T14:40:43.329Z,68.85
2022-11-10T14:43:29.946Z,67.85
2022-11-10T14:46:15.706Z,68.18
2022-11-10T14:49:01.999Z,69.18
2022-11-10T14:51:47.281Z,69.76
2022-11-10T14:54:32.492Z,69.05
2022-11-10T14:57:18.814Z,69.79
2022-11-10T15:00:08.479Z,70.53
2022-11-10T15:02:54.564Z,71.34
2022-11-10T15:05:39.429Z,70.95
2022-11-10T15:08:24.701Z,71.41
2022-11-10T15:11:29.092Z,71.65
2022-11-10T15:14:35.435Z,72.32
2022-11-10T15:17:20.941Z,72.13
2022-11-10T15:20:07.712Z,73.19
2022-11-10T15:22:53.004Z,73.17
2022-11-10T15:25:39.617Z,73.11
2022-11-10T15:28:29.582Z,72.64
2022-11-10T15:31:27.735Z,73.41
2022-11-10T15:34:28.073Z,73.99
2022-11-10T15:37:20.635Z,73.27
2022-11-10T15:40:25.977Z,74.41
2022-11-10T15:43:15.413Z,74.22
2022-11-10T15:46:01.644Z,74.37
2022-11-10T15:48:47.828Z,74.85
2022-11-10T15:51:32.810Z,75.43
2022-11-10T15:54:19.111Z,75.56
2022-11-10T15:57:04.302Z,75.72
2022-11-10T15:59:49.902Z,75.86
2022-11-10T16:02:34.787Z,75.53
2022-11-10T16:05:19.837Z,75.68
2022-11-10T16:08:05.764Z,76.10
2022-11-10T16:10:51.917Z,75.90
2022-11-10T16:13:37.088Z,76.08
2022-11-10T16:16:24.095Z,76.31
2022-11-10T16:19:09.780Z,76.75
2022-11-10T16:21:54.703Z,76.31
2022-11-10T16:24:40.239Z,76.37
2022-11-10T16:27:25.272Z,75.77
2022-11-10T16:30:13.914Z,75.77
2022-11-10T16:32:59.653Z,75.84
2022-11-10T16:35:44.592Z,76.04
2022-11-10T16:38:29.938Z,76.20
2022-11-10T16:41:15.295Z,76.24
2022-11-10T16:44:00.134Z,75.94
2022-11-10T16:46:45.778Z,76.67
2022-11-10T16:49:44.002Z,76.50
2022-11-10T16:52:29.267Z,76.77
2022-11-10T16:55:14.227Z,76.79
2022-11-10T16:58:01.701Z,76.72
2022-11-10T17:00:47.526Z,77.33
2022-11-10T17:03:36.643Z,77.55
2022-11-10T17:06:21.773Z,77.48
2022-11-10T17:09:13.369Z,77.17
2022-11-10T17:11:58.522Z,77.69
2022-11-10T17:14:43.635Z,77.39
2022-11-10T17:17:28.552Z,78.02
2022-11-10T17:20:23.970Z,78.25
2022-11-10T17:23:10.658Z,77.84
2022-11-10T17:25:55.787Z,77.73
2022-11-10T17:28:46.145Z,77.87
2022-11-10T17:31:31.135Z,77.55
2022-11-10T17:34:16.398Z,77.42
2022-11-10T17:37:01.123Z,77.35
2022-11-10T17:39:46.106Z,78.13
2022-11-10T17:42:30.975Z,77.91
2022-11-10T17:45:19.941Z,77.81
2022-11-10T17:48:05.157Z,77.84
2022-11-10T17:50:50.319Z,77.57
2022-11-10T17:53:35.263Z,77.45
2022-11-10T17:56:20.683Z,77.64
2022-11-10T17:59:05.601Z,77.71
2022-11-10T18:01:50.390Z,77.62
2022-11-10T18:04:35.760Z,77.36
2022-11-10T18:07:20.643Z,76.75
2022-11-10T18:10:06.085Z,77.08
2022-11-10T18:12:51.303Z,77.27
2022-11-10T18:15:36.855Z,77.29
2022-11-10T18:18:21.836Z,77.21
2022-11-10T18:21:06.846Z,77.44
2022-11-10T18:23:52.088Z,77.57
2022-11-10T18:26:37.187Z,77.66
2022-11-10T18:29:22.709Z,77.70
2022-11-10T18:32:07.646Z,77.64
2022-11-10T18:34:52.497Z,78.04
2022-11-10T18:37:39.252Z,77.98
2022-11-10T18:40:24.870Z,77.88
2022-11-10T18:43:09.920Z,78.14
2022-11-10T18:45:54.820Z,77.84
2022-11-10T18:48:40.748Z,77.81
2022-11-10T18:51:26.154Z,78.20
2022-11-10T18:54:10.930Z,78.03
2022-11-10T18:56:56.032Z,77.59
2022-11-10T18:59:41.057Z,77.33
2022-11-10T19:02:26.105Z,77.98
2022-11-10T19:05:11.100Z,77.66
2022-11-10T19:07:56.016Z,77.71
2022-11-10T19:10:44.020Z,77.35
2022-11-10T19:13:28.848Z,77.48
2022-11-10T19:16:15.665Z,77.89
2022-11-10T19:19:01.849Z,77.94
2022-11-10T19:21:46.679Z,78.51
2022-11-10T19:24:42.361Z,78.45
2022-11-10T19:27:36.827Z,78.20
2022-11-10T19:30:21.727Z,77.67
2022-11-10T19:33:06.826Z,78.11
2022-11-10T19:35:51.854Z,78.01
2022-11-10T19:38:36.934Z,78.13
2022-11-10T19:41:26.409Z,77.81
2022-11-10T19:44:11.368Z,77.73
2022-11-10T19:46:56.485Z,77.54
2022-11-10T19:49:41.443Z,76.07
2022-11-10T19:52:26.896Z,77.05
2022-11-10T19:55:11.831Z,78.13
2022-11-10T19:57:57.174Z,77.72
2022-11-10T20:00:46.719Z,78.11
2022-11-10T20:03:32.289Z,77.98
2022-11-10T20:06:19.329Z,77.79
2022-11-10T20:09:05.033Z,78.00
2022-11-10T20:11:50.424Z,78.23
2022-11-10T20:14:35.715Z,78.31
2022-11-10T20:17:20.674Z,78.61
2022-11-10T20:20:06.015Z,78.14
2022-11-10T20:22:51.010Z,78.40
2022-11-10T20:25:35.975Z,78.43
2022-11-10T20:28:21.087Z,78.49
2022-11-10T20:31:07.850Z,78.24
2022-11-10T20:33:53.513Z,78.10
2022-11-10T20:36:38.969Z,78.50
2022-11-10T20:39:23.875Z,78.80
2022-11-10T20:42:10.449Z,78.48
2022-11-10T20:44:55.831Z,78.70
2022-11-10T20:47:40.732Z,78.48
2022-11-10T20:50:26.134Z,78.34
2022-11-10T20:53:10.996Z,78.31
2022-11-10T20:55:57.943Z,78.50
2022-11-10T20:58:43.202Z,79.02
2022-11-10T21:01:28.013Z,79.01
2022-11-10T21:04:13.597Z,78.58
2022-11-10T21:06:59.129Z,78.63
2022-11-10T21:09:44.062Z,78.92
2022-11-10T21:12:47.735Z,76.73
2022-11-10T21:15:33.114Z,76.08
2022-11-10T21:18:18.642Z,75.95
2022-11-10T21:21:04.740Z,77.32
2022-11-10T21:23:57.079Z,78.39
2022-11-10T21:26:42.507Z,78.08
2022-11-10T21:29:27.641Z,77.35
2022-11-10T21:32:12.657Z,76.90
2022-11-10T21:34:57.605Z,77.60
2022-11-10T21:37:42.553Z,77.99
2022-11-10T21:40:27.616Z,78.05
2022-11-10T21:43:13.311Z,77.34
2022-11-10T21:45:59.352Z,78.10
2022-11-10T21:48:45.132Z,77.25
2022-11-10T21:51:30.373Z,78.37
2022-11-10T21:54:15.533Z,78.44
2022-11-10T21:57:01.015Z,78.08
2022-11-10T21:59:45.984Z,78.27
2022-11-10T22:02:30.950Z,78.51
2022-11-10T22:05:16.323Z,78.92
2022-11-10T22:08:01.325Z,78.95
2022-11-10T22:11:05.103Z,78.54
2022-11-10T22:14:08.988Z,78.61
2022-11-10T22:17:12.857Z,78.35
2022-11-10T22:19:58.134Z,78.20
2022-11-10T22:22:44.314Z,78.31
2022-11-10T22:25:29.445Z,78.28
2022-11-10T22:28:14.503Z,78.18
2022-11-10T22:31:01.852Z,78.04
2022-11-10T22:33:47.142Z,78.46
2022-11-10T22:36:32.434Z,78.48
2022-11-10T22:39:17.912Z,78.41
2022-11-10T22:42:21.463Z,78.66
2022-11-10T22:45:06.919Z,78.45
2022-11-10T22:48:12.207Z,78.60
2022-11-10T22:50:57.765Z,79.11
2022-11-10T22:53:42.838Z,78.91
2022-11-10T22:56:27.758Z,78.75
2022-11-10T22:59:13.055Z,77.05
2022-11-10T23:01:58.292Z,78.31
2022-11-10T23:04:43.588Z,78.60
2022-11-10T23:07:28.606Z,78.40
2022-11-10T23:10:13.659Z,78.98
2022-11-10T23:12:58.539Z,79.01
2022-11-10T23:15:45.227Z,78.78
2022-11-10T23:18:30.523Z,78.53
2022-11-10T23:21:16.877Z,78.39
2022-11-10T23:24:02.068Z,78.48
2022-11-10T23:26:46.964Z,78.30
2022-11-10T23:29:31.947Z,78.76
2022-11-10T23:32:16.805Z,78.60
2022-11-10T23:35:01.765Z,78.71
2022-11-10T23:37:46.709Z,78.78
2022-11-10T23:40:31.603Z,79.35
2022-11-10T23:43:16.540Z,79.04
2022-11-10T23:46:08.788Z,78.90
2022-11-10T23:48:54.104Z,79.24
2022-11-10T23:51:39.345Z,79.41
2022-11-10T23:54:24.237Z,78.68
2022-11-10T23:57:09.255Z,78.20
2022-11-10T23:59:54.158Z,78.27
